createdAt,value
2023-04-29T00:00:31.476Z,1011.94
2023-04-29T00:01:31.454Z,1011.92
2023-04-29T00:02:32.084Z,1011.99
2023-04-29T00:03:31.624Z,1011.93
2023-04-29T00:04:31.571Z,1011.97
2023-04-29T00:05:31.556Z,1011.98
2023-04-29T00:06:31.661Z,1011.98
2023-04-29T00:07:31.445Z,1012.00
2023-04-29T00:08:31.391Z,1012.02
2023-04-29T00:09:31.326Z,1012.03
2023-04-29T00:10:31.327Z,1012.07
2023-04-29T00:11:31.276Z,1012.10
2023-04-29T00:12:31.278Z,1012.09
2023-04-29T00:13:31.291Z,1012.06
2023-04-29T00:14:31.238Z,1012.10
2023-04-29T00:15:31.227Z,1012.08
2023-04-29T00:16:31.251Z,1012.12
2023-04-29T00:17:31.305Z,1012.17
2023-04-29T00:18:31.176Z,1012.12
2023-04-29T00:19:31.167Z,1012.18
2023-04-29T00:20:31.162Z,1012.20
2023-04-29T00:21:31.133Z,1012.17
2023-04-29T00:22:31.128Z,1012.19
2023-04-29T00:23:31.110Z,1012.26
2023-04-29T00:24:31.115Z,1012.22
2023-04-29T00:25:31.116Z,1012.22
2023-04-29T00:26:31.063Z,1012.25
2023-04-29T00:27:31.096Z,1012.24
2023-04-29T00:28:31.053Z,1012.25
2023-04-29T00:29:31.039Z,1012.29
2023-04-29T00:30:31.023Z,1012.28
2023-04-29T00:31:31.089Z,1012.28
2023-04-29T00:32:30.978Z,1012.30
2023-04-29T00:33:31.013Z,1012.29
2023-04-29T00:34:31.017Z,1012.32
2023-04-29T00:35:30.971Z,1012.30
2023-04-29T00:36:30.956Z,1012.35
2023-04-29T00:37:30.941Z,1012.35
2023-04-29T00:38:30.906Z,1012.30
2023-04-29T00:39:30.895Z,1012.38
2023-04-29T00:40:30.945Z,1012.39
2023-04-29T00:41:30.851Z,1012.40
2023-04-29T00:42:30.863Z,1012.40
2023-04-29T00:43:30.822Z,1012.34
2023-04-29T00:44:30.816Z,1012.42
2023-04-29T00:45:30.821Z,1012.41
2023-04-29T00:46:30.847Z,1012.42
2023-04-29T00:47:30.804Z,1012.41
2023-04-29T00:48:30.762Z,1012.44
2023-04-29T00:49:30.731Z,1012.45
2023-04-29T00:50:30.773Z,1012.49
2023-04-29T00:51:30.741Z,1012.47
2023-04-29T00:52:30.745Z,1012.48
2023-04-29T00:53:30.713Z,1012.49
2023-04-29T00:54:30.705Z,1012.51
2023-04-29T00:55:30.707Z,1012.47
2023-04-29T00:56:30.641Z,1012.53
2023-04-29T00:57:30.633Z,1012.54
2023-04-29T00:58:30.709Z,1012.50
2023-04-29T00:59:30.616Z,1012.58
2023-04-29T01:00:30.584Z,1012.58
2023-04-29T01:01:30.631Z,1012.58
2023-04-29T01:02:30.654Z,1012.57
2023-04-29T01:03:30.699Z,1012.59
2023-04-29T01:04:30.614Z,1012.60
2023-04-29T01:05:30.539Z,1012.60
2023-04-29T01:06:30.508Z,1012.62
2023-04-29T01:07:30.482Z,1012.61
2023-04-29T01:08:30.498Z,1012.60
2023-04-29T01:09:30.447Z,1012.60
2023-04-29T01:10:30.451Z,1012.63
2023-04-29T01:11:30.461Z,1012.64
2023-04-29T01:12:30.429Z,1012.66
2023-04-29T01:13:30.411Z,1012.67
2023-04-29T01:14:30.408Z,1012.70
2023-04-29T01:15:30.369Z,1012.69
2023-04-29T01:16:30.446Z,1012.68
2023-04-29T01:17:30.440Z,1012.72
2023-04-29T01:18:30.445Z,1012.70
2023-04-29T01:19:30.331Z,1012.72
2023-04-29T01:20:30.335Z,1012.73
2023-04-29T01:21:30.286Z,1012.72
2023-04-29T01:22:30.312Z,1012.72
2023-04-29T01:23:30.269Z,1012.74
2023-04-29T01:24:30.241Z,1012.73
2023-04-29T01:25:30.246Z,1012.75
2023-04-29T01:26:30.200Z,1012.76
2023-04-29T01:27:30.240Z,1012.78
2023-04-29T01:28:30.212Z,1012.77
2023-04-29T01:29:30.189Z,1012.75
2023-04-29T01:30:30.182Z,1012.72
2023-04-29T01:31:30.202Z,1012.80
2023-04-29T01:32:30.178Z,1012.78
2023-04-29T01:33:30.135Z,1012.79
2023-04-29T01:34:30.115Z,1012.76
2023-04-29T01:35:30.098Z,1012.82
2023-04-29T01:36:30.152Z,1012.79
2023-04-29T01:37:30.074Z,1012.84
2023-04-29T01:38:30.071Z,1012.81
2023-04-29T01:39:30.047Z,1012.84
2023-04-29T01:40:30.028Z,1012.86
2023-04-29T01:41:30.042Z,1012.89
2023-04-29T01:42:30.072Z,1012.98
2023-04-29T01:43:29.975Z,1012.98
2023-04-29T01:44:30.016Z,1013.00
2023-04-29T01:45:30.009Z,1013.01
2023-04-29T01:46:30.049Z,1013.05
2023-04-29T01:47:30.003Z,1013.03
2023-04-29T01:48:29.985Z,1013.07
2023-04-29T01:49:29.949Z,1013.08
2023-04-29T01:50:29.898Z,1013.09
2023-04-29T01:51:29.909Z,1013.05
2023-04-29T01:52:29.853Z,1013.11
2023-04-29T01:53:29.850Z,1013.08
2023-04-29T01:54:29.859Z,1013.09
2023-04-29T01:55:29.855Z,1013.11
2023-04-29T01:56:29.808Z,1013.09
2023-04-29T01:57:29.845Z,1013.05
2023-04-29T01:58:29.785Z,1013.08
2023-04-29T01:59:31.495Z,1013.14
2023-04-29T02:00:29.814Z,1013.12
2023-04-29T02:01:29.723Z,1013.11
2023-04-29T02:02:29.770Z,1013.13
2023-04-29T02:03:29.793Z,1013.12
2023-04-29T02:04:29.749Z,1013.19
2023-04-29T02:05:29.674Z,1013.13
2023-04-29T02:06:29.681Z,1013.15
2023-04-29T02:07:29.684Z,1013.14
2023-04-29T02:08:29.680Z,1013.14
2023-04-29T02:09:29.673Z,1013.17
2023-04-29T02:10:29.641Z,1013.22
2023-04-29T02:11:29.613Z,1013.21
2023-04-29T02:12:29.657Z,1013.24
2023-04-29T02:13:29.571Z,1013.25
2023-04-29T02:14:29.561Z,1013.25
2023-04-29T02:15:29.545Z,1013.31
2023-04-29T02:16:29.633Z,1013.29
2023-04-29T02:17:29.591Z,1013.29
2023-04-29T02:18:29.624Z,1013.31
2023-04-29T02:19:29.514Z,1013.28
2023-04-29T02:20:29.499Z,1013.30
2023-04-29T02:21:29.501Z,1013.37
2023-04-29T02:22:29.482Z,1013.29
2023-04-29T02:23:29.445Z,1013.34
2023-04-29T02:24:29.463Z,1013.32
2023-04-29T02:25:29.436Z,1013.34
2023-04-29T02:26:29.452Z,1013.38
2023-04-29T02:27:29.380Z,1013.38
2023-04-29T02:28:29.412Z,1013.34
2023-04-29T02:29:29.360Z,1013.39
2023-04-29T02:30:29.373Z,1013.40
2023-04-29T02:31:29.500Z,1013.42
2023-04-29T02:32:29.404Z,1013.46
2023-04-29T02:33:29.311Z,1013.44
2023-04-29T02:34:29.327Z,1013.47
2023-04-29T02:35:29.315Z,1013.42
2023-04-29T02:36:29.295Z,1013.43
2023-04-29T02:37:29.263Z,1013.43
2023-04-29T02:38:29.271Z,1013.42
2023-04-29T02:39:29.250Z,1013.48
2023-04-29T02:40:29.218Z,1013.48
2023-04-29T02:41:29.249Z,1013.47
2023-04-29T02:42:29.235Z,1013.53
2023-04-29T02:43:29.209Z,1013.48
2023-04-29T02:44:29.186Z,1013.50
2023-04-29T02:45:29.352Z,1013.54
2023-04-29T02:46:29.365Z,1013.55
2023-04-29T02:47:29.137Z,1013.50
2023-04-29T02:48:29.137Z,1013.58
2023-04-29T02:49:29.147Z,1013.57
2023-04-29T02:50:29.087Z,1013.60
2023-04-29T02:51:29.078Z,1013.61
2023-04-29T02:52:29.227Z,1013.59
2023-04-29T02:53:29.037Z,1013.61
2023-04-29T02:54:29.037Z,1013.63
2023-04-29T02:55:29.039Z,1013.64
2023-04-29T02:56:29.012Z,1013.64
2023-04-29T02:57:29.039Z,1013.64
2023-04-29T02:58:29.006Z,1013.69
2023-04-29T02:59:28.959Z,1013.69
2023-04-29T03:00:28.956Z,1013.69
2023-04-29T03:01:29.019Z,1013.69
2023-04-29T03:02:29.009Z,1013.70
2023-04-29T03:03:29.063Z,1013.68
2023-04-29T03:04:28.994Z,1013.71
2023-04-29T03:05:28.890Z,1013.70
2023-04-29T03:06:28.915Z,1013.70
2023-04-29T03:07:28.891Z,1013.76
2023-04-29T03:08:28.912Z,1013.77
2023-04-29T03:09:28.866Z,1013.77
2023-04-29T03:10:28.821Z,1013.77
2023-04-29T03:11:28.838Z,1013.75
2023-04-29T03:12:28.850Z,1013.74
2023-04-29T03:13:28.815Z,1013.79
2023-04-29T03:14:28.769Z,1013.74
2023-04-29T03:15:28.750Z,1013.75
2023-04-29T03:16:28.861Z,1013.78
2023-04-29T03:17:28.793Z,1013.76
2023-04-29T03:18:28.728Z,1013.78
2023-04-29T03:19:28.695Z,1013.83
2023-04-29T03:20:28.695Z,1013.81
2023-04-29T03:21:28.678Z,1013.83
2023-04-29T03:22:28.729Z,1013.82
2023-04-29T03:23:28.693Z,1013.87
2023-04-29T03:24:28.651Z,1013.90
2023-04-29T03:25:28.641Z,1013.88
2023-04-29T03:26:28.633Z,1013.88
2023-04-29T03:27:28.617Z,1013.89
2023-04-29T03:28:28.594Z,1013.92
2023-04-29T03:29:28.586Z,1013.91
2023-04-29T03:30:28.571Z,1013.91
2023-04-29T03:31:28.641Z,1013.91
2023-04-29T03:32:28.545Z,1013.91
2023-04-29T03:33:28.507Z,1013.97
2023-04-29T03:34:28.567Z,1013.95
2023-04-29T03:35:28.526Z,1013.96
2023-04-29T03:36:28.500Z,1013.99
2023-04-29T03:37:28.597Z,1013.95
2023-04-29T03:38:28.437Z,1013.94
2023-04-29T03:39:28.435Z,1014.00
2023-04-29T03:40:28.443Z,1014.00
2023-04-29T03:41:28.425Z,1014.00
2023-04-29T03:42:28.385Z,1014.06
2023-04-29T03:43:28.378Z,1013.99
2023-04-29T03:44:28.393Z,1014.00
2023-04-29T03:45:28.344Z,1014.01
2023-04-29T03:46:28.374Z,1014.02
2023-04-29T03:47:28.388Z,1014.06
2023-04-29T03:48:28.297Z,1014.02
2023-04-29T03:49:28.295Z,1014.04
2023-04-29T03:50:28.371Z,1014.04
2023-04-29T03:51:28.275Z,1014.02
2023-04-29T03:52:28.332Z,1014.06
2023-04-29T03:53:28.252Z,1014.03
2023-04-29T03:54:28.280Z,1014.06
2023-04-29T03:55:28.207Z,1014.07
2023-04-29T03:56:28.212Z,1014.05
2023-04-29T03:57:28.197Z,1014.02
2023-04-29T03:58:28.180Z,1014.03
2023-04-29T03:59:28.152Z,1014.03
2023-04-29T04:00:28.219Z,1014.03
2023-04-29T04:01:28.225Z,1014.05
2023-04-29T04:02:28.457Z,1014.10
2023-04-29T04:03:28.311Z,1014.10
2023-04-29T04:04:28.312Z,1014.11
2023-04-29T04:05:28.124Z,1014.10
2023-04-29T04:06:28.079Z,1014.13
2023-04-29T04:07:28.052Z,1014.16
2023-04-29T04:08:28.082Z,1014.13
2023-04-29T04:09:28.020Z,1014.17
2023-04-29T04:10:28.040Z,1014.18
2023-04-29T04:11:28.072Z,1014.22
2023-04-29T04:12:28.067Z,1014.21
2023-04-29T04:13:27.992Z,1014.21
2023-04-29T04:14:27.981Z,1014.23
2023-04-29T04:15:28.189Z,1014.25
2023-04-29T04:16:28.021Z,1014.23
2023-04-29T04:17:27.919Z,1014.24
2023-04-29T04:18:27.920Z,1014.23
2023-04-29T04:19:27.931Z,1014.25
2023-04-29T04:20:27.889Z,1014.28
2023-04-29T04:21:27.876Z,1014.29
2023-04-29T04:22:27.885Z,1014.28
2023-04-29T04:23:27.858Z,1014.30
2023-04-29T04:24:27.855Z,1014.32
2023-04-29T04:25:27.864Z,1014.28
2023-04-29T04:26:27.811Z,1014.31
2023-04-29T04:27:27.833Z,1014.31
2023-04-29T04:28:27.838Z,1014.31
2023-04-29T04:29:28.353Z,1014.31
2023-04-29T04:30:27.758Z,1014.34
2023-04-29T04:31:27.826Z,1014.35
2023-04-29T04:32:27.754Z,1014.35
2023-04-29T04:33:27.714Z,1014.41
2023-04-29T04:34:27.701Z,1014.38
2023-04-29T04:35:27.748Z,1014.38
2023-04-29T04:36:27.774Z,1014.40
2023-04-29T04:37:27.666Z,1014.41
2023-04-29T04:38:27.649Z,1014.43
2023-04-29T04:39:27.673Z,1014.44
2023-04-29T04:40:27.630Z,1014.43
2023-04-29T04:41:27.669Z,1014.44
2023-04-29T04:42:27.635Z,1014.46
2023-04-29T04:43:27.591Z,1014.47
2023-04-29T04:44:27.601Z,1014.49
2023-04-29T04:45:27.610Z,1014.52
2023-04-29T04:46:27.542Z,1014.50
2023-04-29T04:47:27.624Z,1014.55
2023-04-29T04:48:27.556Z,1014.56
2023-04-29T04:49:27.531Z,1014.56
2023-04-29T04:50:27.520Z,1014.55
2023-04-29T04:51:27.529Z,1014.58
2023-04-29T04:52:27.533Z,1014.60
2023-04-29T04:53:27.458Z,1014.60
2023-04-29T04:54:27.482Z,1014.60
2023-04-29T04:55:27.464Z,1014.62
2023-04-29T04:56:27.436Z,1014.61
2023-04-29T04:57:27.485Z,1014.63
2023-04-29T04:58:27.415Z,1014.65
2023-04-29T04:59:27.409Z,1014.66
2023-04-29T05:00:27.415Z,1014.69
2023-04-29T05:01:27.430Z,1014.71
2023-04-29T05:02:27.478Z,1014.69
2023-04-29T05:03:27.764Z,1014.72
2023-04-29T05:04:35.948Z,1014.73
2023-04-29T05:05:27.365Z,1014.76
2023-04-29T05:06:27.443Z,1014.73
2023-04-29T05:07:28.313Z,1014.77
2023-04-29T05:08:27.722Z,1014.79
2023-04-29T05:09:27.413Z,1014.75
2023-04-29T05:10:27.370Z,1014.78
2023-04-29T05:11:27.765Z,1014.83
2023-04-29T05:12:27.885Z,1014.83
2023-04-29T05:13:27.472Z,1014.84
2023-04-29T05:14:27.540Z,1014.83
2023-04-29T05:15:27.171Z,1014.82
2023-04-29T05:16:27.617Z,1014.86
2023-04-29T05:17:28.024Z,1014.84
2023-04-29T05:18:27.470Z,1014.88
2023-04-29T05:19:27.437Z,1014.91
2023-04-29T05:20:27.099Z,1014.89
2023-04-29T05:21:27.454Z,1014.91
2023-04-29T05:22:27.117Z,1014.95
2023-04-29T05:23:27.111Z,1014.98
2023-04-29T05:24:27.181Z,1014.94
2023-04-29T05:25:27.100Z,1014.99
2023-04-29T05:26:27.529Z,1015.00
2023-04-29T05:27:27.175Z,1015.00
2023-04-29T05:28:28.218Z,1015.05
2023-04-29T05:29:27.004Z,1015.06
2023-04-29T05:30:28.410Z,1015.06
2023-04-29T05:31:27.039Z,1015.06
2023-04-29T05:32:27.111Z,1015.08
2023-04-29T05:33:26.939Z,1015.07
2023-04-29T05:34:26.920Z,1015.08
2023-04-29T05:35:28.542Z,1015.09
2023-04-29T05:36:26.939Z,1015.13
2023-04-29T05:37:31.927Z,1015.09
2023-04-29T05:38:27.078Z,1015.15
2023-04-29T05:39:26.925Z,1015.19
2023-04-29T05:40:26.848Z,1015.19
2023-04-29T05:41:26.948Z,1015.23
2023-04-29T05:42:26.958Z,1015.21
2023-04-29T05:43:26.934Z,1015.21
2023-04-29T05:44:26.774Z,1015.23
2023-04-29T05:45:26.880Z,1015.28
2023-04-29T05:46:26.947Z,1015.27
2023-04-29T05:47:26.984Z,1015.26
2023-04-29T05:48:27.440Z,1015.25
2023-04-29T05:49:37.341Z,1015.23
2023-04-29T05:50:27.311Z,1015.25
2023-04-29T05:51:26.747Z,1015.26
2023-04-29T05:52:26.715Z,1015.24
2023-04-29T05:53:26.709Z,1015.32
2023-04-29T05:54:26.671Z,1015.31
2023-04-29T05:55:26.648Z,1015.34
2023-04-29T05:56:26.649Z,1015.34
2023-04-29T05:57:37.615Z,1015.40
2023-04-29T05:58:35.730Z,1015.39
2023-04-29T05:59:27.428Z,1015.37
2023-04-29T06:00:27.858Z,1015.38
2023-04-29T06:01:27.953Z,1015.40
2023-04-29T06:04:03.603Z,1015.44
2023-04-29T06:05:12.244Z,1015.42
2023-04-29T06:06:03.184Z,1015.42
2023-04-29T06:07:02.966Z,1015.46
2023-04-29T06:08:03.022Z,1015.48
2023-04-29T06:09:05.233Z,1015.50
2023-04-29T06:10:04.075Z,1015.53
2023-04-29T06:11:02.890Z,1015.56
2023-04-29T06:12:03.236Z,1015.57
2023-04-29T06:13:02.836Z,1015.58
2023-04-29T06:14:04.127Z,1015.61
2023-04-29T06:16:22.980Z,1015.67
2023-04-29T06:17:23.267Z,1015.63
2023-04-29T06:18:24.379Z,1015.64
2023-04-29T06:19:22.867Z,1015.66
2023-04-29T06:20:22.847Z,1015.67
2023-04-29T06:21:23.052Z,1015.64
2023-04-29T06:22:23.705Z,1015.65
2023-04-29T06:23:22.855Z,1015.69
2023-04-29T06:24:22.779Z,1015.70
2023-04-29T06:25:24.148Z,1015.71
2023-04-29T06:26:24.281Z,1015.69
2023-04-29T06:27:22.860Z,1015.71
2023-04-29T06:28:22.752Z,1015.72
2023-04-29T06:29:23.108Z,1015.78
2023-04-29T06:30:22.762Z,1015.81
2023-04-29T06:31:23.331Z,1015.83
2023-04-29T06:32:23.070Z,1015.80
2023-04-29T06:33:24.221Z,1015.85
2023-04-29T06:34:23.115Z,1015.90
2023-04-29T06:35:22.680Z,1015.89
2023-04-29T06:36:22.631Z,1015.91
2023-04-29T06:37:22.706Z,1015.89
2023-04-29T06:38:23.819Z,1015.92
2023-04-29T06:39:22.591Z,1015.98
2023-04-29T06:40:22.581Z,1016.02
2023-04-29T06:41:22.562Z,1016.00
2023-04-29T06:42:22.552Z,1015.98
2023-04-29T06:43:22.536Z,1015.98
2023-04-29T06:44:22.542Z,1015.99
2023-04-29T06:45:22.491Z,1016.01
2023-04-29T06:46:22.536Z,1015.97
2023-04-29T06:47:22.501Z,1015.97
2023-04-29T06:48:22.475Z,1016.00
2023-04-29T06:49:22.435Z,1016.01
2023-04-29T06:50:22.433Z,1016.02
2023-04-29T06:51:22.518Z,1016.04
2023-04-29T06:52:22.408Z,1016.03
2023-04-29T06:53:22.417Z,1016.06
2023-04-29T06:54:22.374Z,1016.05
2023-04-29T06:55:22.486Z,1016.05
2023-04-29T06:56:22.353Z,1016.06
2023-04-29T06:57:22.358Z,1016.08
2023-04-29T06:58:22.312Z,1016.08
2023-04-29T06:59:22.372Z,1016.09
2023-04-29T07:00:22.319Z,1016.12
2023-04-29T07:01:22.309Z,1016.11
2023-04-29T07:02:22.535Z,1016.13
2023-04-29T07:03:22.416Z,1016.17
2023-04-29T07:04:22.281Z,1016.13
2023-04-29T07:05:22.282Z,1016.14
2023-04-29T07:06:22.210Z,1016.15
2023-04-29T07:07:30.247Z,1016.16
2023-04-29T07:08:22.183Z,1016.16
2023-04-29T07:09:22.396Z,1016.19
2023-04-29T07:10:22.318Z,1016.18
2023-04-29T07:11:22.140Z,1016.20
2023-04-29T07:12:22.138Z,1016.19
2023-04-29T07:13:22.229Z,1016.19
2023-04-29T07:14:22.168Z,1016.17
2023-04-29T07:15:22.080Z,1016.24
2023-04-29T07:16:22.190Z,1016.23
2023-04-29T07:17:22.113Z,1016.26
2023-04-29T07:18:22.043Z,1016.30
2023-04-29T07:19:22.036Z,1016.32
2023-04-29T07:20:22.617Z,1016.34
2023-04-29T07:21:22.066Z,1016.33
2023-04-29T07:22:21.978Z,1016.38
2023-04-29T07:23:21.996Z,1016.37
2023-04-29T07:24:21.958Z,1016.43
2023-04-29T07:25:21.981Z,1016.43
2023-04-29T07:26:21.913Z,1016.48
2023-04-29T07:27:21.913Z,1016.50
2023-04-29T07:28:21.926Z,1016.48
2023-04-29T07:29:21.920Z,1016.53
2023-04-29T07:30:21.906Z,1016.55
2023-04-29T07:31:22.203Z,1016.61
2023-04-29T07:32:21.869Z,1016.56
2023-04-29T07:33:21.875Z,1016.61
2023-04-29T07:34:21.831Z,1016.59
2023-04-29T07:35:21.805Z,1016.64
2023-04-29T07:36:21.815Z,1016.66
2023-04-29T07:37:21.849Z,1016.72
2023-04-29T07:38:21.762Z,1016.72
2023-04-29T07:39:21.820Z,1016.71
2023-04-29T07:40:21.769Z,1016.74
2023-04-29T07:41:21.713Z,1016.77
2023-04-29T07:42:21.694Z,1016.78
2023-04-29T07:43:21.808Z,1016.77
2023-04-29T07:44:21.742Z,1016.81
2023-04-29T07:45:21.694Z,1016.82
2023-04-29T07:46:21.766Z,1016.82
2023-04-29T07:47:21.767Z,1016.83
2023-04-29T07:48:22.505Z,1016.88
2023-04-29T07:49:21.614Z,1016.90
2023-04-29T07:50:21.698Z,1016.92
2023-04-29T07:51:21.644Z,1016.95
2023-04-29T07:52:21.614Z,1016.94
2023-04-29T07:53:21.787Z,1016.93
2023-04-29T07:54:21.579Z,1016.96
2023-04-29T07:55:21.605Z,1016.88
2023-04-29T07:56:21.516Z,1016.96
2023-04-29T07:57:21.516Z,1016.92
2023-04-29T07:58:21.473Z,1016.89
2023-04-29T07:59:21.474Z,1016.92
2023-04-29T08:00:21.489Z,1016.93
2023-04-29T08:01:21.746Z,1016.94
2023-04-29T08:02:22.786Z,1016.92
2023-04-29T08:03:22.374Z,1016.90
2023-04-29T08:04:21.947Z,1016.89
2023-04-29T08:05:21.619Z,1016.95
2023-04-29T08:06:21.774Z,1016.94
2023-04-29T08:07:21.370Z,1016.96
2023-04-29T08:08:31.920Z,1017.00
2023-04-29T08:09:22.899Z,1017.01
2023-04-29T08:10:21.347Z,1017.05
2023-04-29T08:11:21.378Z,1017.06
2023-04-29T08:12:21.359Z,1017.04
2023-04-29T08:13:21.316Z,1017.05
2023-04-29T08:14:21.331Z,1017.06
2023-04-29T08:15:21.363Z,1017.09
2023-04-29T08:16:21.263Z,1017.05
2023-04-29T08:17:21.286Z,1017.15
2023-04-29T08:18:21.217Z,1017.04
2023-04-29T08:19:21.306Z,1017.10
2023-04-29T08:20:21.252Z,1017.12
2023-04-29T08:21:21.180Z,1017.07
2023-04-29T08:22:21.158Z,1017.05
2023-04-29T08:23:21.140Z,1017.09
2023-04-29T08:24:21.118Z,1017.13
2023-04-29T08:25:21.129Z,1017.11
2023-04-29T08:26:22.548Z,1017.15
2023-04-29T08:27:21.080Z,1017.16
2023-04-29T08:28:21.073Z,1017.15
2023-04-29T08:29:21.057Z,1017.20
2023-04-29T08:30:21.158Z,1017.19
2023-04-29T08:31:21.099Z,1017.20
2023-04-29T08:32:21.111Z,1017.22
2023-04-29T08:33:21.066Z,1017.23
2023-04-29T08:34:21.147Z,1017.24
2023-04-29T08:35:21.050Z,1017.24
2023-04-29T08:36:20.985Z,1017.26
2023-04-29T08:37:20.989Z,1017.28
2023-04-29T08:38:21.048Z,1017.29
2023-04-29T08:39:21.002Z,1017.28
2023-04-29T08:40:21.070Z,1017.32
2023-04-29T08:41:20.915Z,1017.32
2023-04-29T08:42:21.062Z,1017.33
2023-04-29T08:43:20.880Z,1017.37
2023-04-29T08:44:20.937Z,1017.33
2023-04-29T08:45:20.944Z,1017.35
2023-04-29T08:46:21.029Z,1017.37
2023-04-29T08:47:20.919Z,1017.35
2023-04-29T08:48:20.968Z,1017.38
2023-04-29T08:49:20.842Z,1017.34
2023-04-29T08:50:20.931Z,1017.39
2023-04-29T08:51:20.919Z,1017.35
2023-04-29T08:52:20.903Z,1017.36
2023-04-29T08:53:20.851Z,1017.40
2023-04-29T08:54:20.852Z,1017.42
2023-04-29T08:55:20.762Z,1017.44
2023-04-29T08:56:20.850Z,1017.48
2023-04-29T08:57:20.724Z,1017.43
2023-04-29T08:58:20.667Z,1017.47
2023-04-29T08:59:20.671Z,1017.48
2023-04-29T09:00:20.656Z,1017.45
2023-04-29T09:01:20.654Z,1017.45
2023-04-29T09:02:20.730Z,1017.49
2023-04-29T09:03:22.058Z,1017.50
2023-04-29T09:04:20.889Z,1017.52
2023-04-29T09:05:20.621Z,1017.48
2023-04-29T09:06:20.631Z,1017.53
2023-04-29T09:07:20.723Z,1017.56
2023-04-29T09:08:20.640Z,1017.52
2023-04-29T09:09:21.083Z,1017.54
2023-04-29T09:10:20.689Z,1017.57
2023-04-29T09:11:20.570Z,1017.52
2023-04-29T09:12:20.538Z,1017.54
2023-04-29T09:13:20.528Z,1017.54
2023-04-29T09:14:20.644Z,1017.56
2023-04-29T09:15:20.567Z,1017.59
2023-04-29T09:16:20.572Z,1017.63
2023-04-29T09:17:20.501Z,1017.61
2023-04-29T09:18:20.498Z,1017.66
2023-04-29T09:19:21.340Z,1017.66
2023-04-29T09:20:20.469Z,1017.66
2023-04-29T09:21:21.954Z,1017.66
2023-04-29T09:22:20.452Z,1017.69
2023-04-29T09:23:20.402Z,1017.71
2023-04-29T09:24:20.431Z,1017.73
2023-04-29T09:25:20.324Z,1017.73
2023-04-29T09:26:20.473Z,1017.76
2023-04-29T09:27:20.455Z,1017.78
2023-04-29T09:28:20.335Z,1017.76
2023-04-29T09:29:20.391Z,1017.83
2023-04-29T09:30:20.277Z,1017.82
2023-04-29T09:31:20.307Z,1017.84
2023-04-29T09:32:20.276Z,1017.86
2023-04-29T09:33:20.252Z,1017.85
2023-04-29T09:34:20.211Z,1017.90
2023-04-29T09:35:20.360Z,1017.90
2023-04-29T09:36:20.415Z,1017.93
2023-04-29T09:37:20.160Z,1017.91
2023-04-29T09:38:20.259Z,1017.89
2023-04-29T09:39:20.269Z,1017.85
2023-04-29T09:40:20.225Z,1017.88
2023-04-29T09:41:20.413Z,1017.90
2023-04-29T09:42:20.162Z,1017.86
2023-04-29T09:43:20.195Z,1017.90
2023-04-29T09:44:20.088Z,1017.91
2023-04-29T09:45:20.142Z,1017.86
2023-04-29T09:46:20.145Z,1017.84
2023-04-29T09:47:20.007Z,1017.85
2023-04-29T09:48:20.021Z,1017.82
2023-04-29T09:49:19.985Z,1017.82
2023-04-29T09:50:20.102Z,1017.84
2023-04-29T09:51:20.275Z,1017.86
2023-04-29T09:52:20.003Z,1017.85
2023-04-29T09:53:20.035Z,1017.87
2023-04-29T09:54:20.023Z,1017.89
2023-04-29T09:55:20.094Z,1017.92
2023-04-29T09:56:20.232Z,1017.87
2023-04-29T09:57:19.980Z,1017.90
2023-04-29T09:58:19.899Z,1017.90
2023-04-29T09:59:25.957Z,1017.91
2023-04-29T10:00:20.924Z,1017.96
2023-04-29T10:01:19.888Z,1017.96
2023-04-29T10:02:19.947Z,1017.93
2023-04-29T10:03:20.140Z,1017.97
2023-04-29T10:04:19.816Z,1017.95
2023-04-29T10:05:19.807Z,1017.96
2023-04-29T10:06:19.776Z,1017.98
2023-04-29T10:07:19.804Z,1017.98
2023-04-29T10:08:19.900Z,1018.01
2023-04-29T10:09:19.695Z,1018.00
2023-04-29T10:10:19.695Z,1017.99
2023-04-29T10:11:19.685Z,1018.02
2023-04-29T10:12:19.756Z,1018.01
2023-04-29T10:13:19.691Z,1018.01
2023-04-29T10:14:19.673Z,1018.02
2023-04-29T10:15:20.383Z,1018.00
2023-04-29T10:16:19.621Z,1018.05
2023-04-29T10:17:19.625Z,1018.09
2023-04-29T10:18:19.691Z,1018.06
2023-04-29T10:19:19.514Z,1018.07
2023-04-29T10:20:19.494Z,1018.06
2023-04-29T10:21:19.510Z,1018.05
2023-04-29T10:22:19.641Z,1018.04
2023-04-29T10:23:19.547Z,1018.04
2023-04-29T10:24:19.526Z,1018.07
2023-04-29T10:25:19.784Z,1018.02
2023-04-29T10:26:19.567Z,1018.06
2023-04-29T10:27:19.466Z,1018.02
2023-04-29T10:28:19.394Z,1018.03
2023-04-29T10:29:19.449Z,1018.00
2023-04-29T10:30:19.645Z,1018.04
2023-04-29T10:31:19.482Z,1018.06
2023-04-29T10:32:19.417Z,1018.04
2023-04-29T10:33:19.436Z,1018.01
2023-04-29T10:34:19.425Z,1017.98
2023-04-29T10:35:19.549Z,1017.99
2023-04-29T10:36:19.303Z,1018.02
2023-04-29T10:37:19.279Z,1018.01
2023-04-29T10:38:19.418Z,1018.01
2023-04-29T10:39:19.514Z,1018.01
2023-04-29T10:40:19.341Z,1018.00
2023-04-29T10:41:19.200Z,1017.97
2023-04-29T10:42:19.223Z,1017.99
2023-04-29T10:43:19.172Z,1017.99
2023-04-29T10:44:19.195Z,1018.04
2023-04-29T10:45:19.185Z,1018.01
2023-04-29T10:46:19.190Z,1018.02
2023-04-29T10:47:19.124Z,1018.06
2023-04-29T10:48:19.187Z,1018.09
2023-04-29T10:49:19.104Z,1018.01
2023-04-29T10:50:19.092Z,1018.01
2023-04-29T10:51:19.089Z,1018.00
2023-04-29T10:52:19.148Z,1018.04
2023-04-29T10:53:19.130Z,1018.02
2023-04-29T10:54:19.049Z,1018.01
2023-04-29T10:55:19.052Z,1018.03
2023-04-29T10:56:19.024Z,1018.03
2023-04-29T10:57:19.038Z,1018.05
2023-04-29T10:58:18.988Z,1018.04
2023-04-29T10:59:18.999Z,1018.06
2023-04-29T11:00:19.011Z,1018.07
2023-04-29T11:01:19.075Z,1018.02
2023-04-29T11:02:18.941Z,1018.04
2023-04-29T11:03:19.062Z,1018.08
2023-04-29T11:04:19.091Z,1018.09
2023-04-29T11:05:18.992Z,1018.10
2023-04-29T11:06:18.942Z,1018.11
2023-04-29T11:07:18.894Z,1018.10
2023-04-29T11:08:18.887Z,1018.12
2023-04-29T11:09:18.859Z,1018.12
2023-04-29T11:10:18.893Z,1018.16
2023-04-29T11:11:19.091Z,1018.14
2023-04-29T11:12:21.448Z,1018.13
2023-04-29T11:13:18.820Z,1018.14
2023-04-29T11:14:18.821Z,1018.18
2023-04-29T11:15:18.774Z,1018.20
2023-04-29T11:16:18.808Z,1018.18
2023-04-29T11:17:18.758Z,1018.20
2023-04-29T11:18:18.805Z,1018.20
2023-04-29T11:19:18.876Z,1018.16
2023-04-29T11:20:18.717Z,1018.16
2023-04-29T11:21:18.719Z,1018.17
2023-04-29T11:22:18.722Z,1018.13
2023-04-29T11:23:18.710Z,1018.13
2023-04-29T11:24:18.745Z,1018.14
2023-04-29T11:25:18.643Z,1018.13
2023-04-29T11:26:18.646Z,1018.15
2023-04-29T11:27:18.718Z,1018.11
2023-04-29T11:28:18.622Z,1018.10
2023-04-29T11:29:18.579Z,1018.10
2023-04-29T11:30:18.633Z,1018.11
2023-04-29T11:31:18.581Z,1018.13
2023-04-29T11:32:18.620Z,1018.14
2023-04-29T11:33:18.653Z,1018.10
2023-04-29T11:34:18.534Z,1018.14
2023-04-29T11:35:18.547Z,1018.09
2023-04-29T11:36:18.504Z,1018.14
2023-04-29T11:37:18.482Z,1018.13
2023-04-29T11:38:18.497Z,1018.15
2023-04-29T11:39:18.450Z,1018.10
2023-04-29T11:40:19.970Z,1018.11
2023-04-29T11:41:18.433Z,1018.13
2023-04-29T11:42:18.431Z,1018.14
2023-04-29T11:43:18.428Z,1018.18
2023-04-29T11:44:18.416Z,1018.17
2023-04-29T11:45:18.337Z,1018.18
2023-04-29T11:46:18.451Z,1018.17
2023-04-29T11:47:18.444Z,1018.18
2023-04-29T11:48:18.372Z,1018.15
2023-04-29T11:49:18.312Z,1018.13
2023-04-29T11:50:18.473Z,1018.11
2023-04-29T11:51:18.296Z,1018.22
2023-04-29T11:52:18.253Z,1018.15
2023-04-29T11:53:18.262Z,1018.21
2023-04-29T11:54:18.322Z,1018.18
2023-04-29T11:55:18.241Z,1018.20
2023-04-29T11:56:18.253Z,1018.20
2023-04-29T11:57:18.176Z,1018.18
2023-04-29T11:58:18.260Z,1018.12
2023-04-29T11:59:18.154Z,1018.10
2023-04-29T12:00:18.222Z,1018.11
2023-04-29T12:01:18.152Z,1018.05
2023-04-29T12:02:18.195Z,1018.03
2023-04-29T12:03:18.298Z,1018.02
2023-04-29T12:04:18.948Z,1017.98
2023-04-29T12:05:18.370Z,1018.00
2023-04-29T12:06:18.094Z,1017.94
2023-04-29T12:07:18.066Z,1017.92
2023-04-29T12:08:18.037Z,1017.94